Time;durP1;ratioP1;P1;durP2;ratioP2;P2;SDS_P1;SDS_P2;PMS_P1;PMS_P2;Temp;Humidity;BMP_temperature;BMP_pressure;BME280_temperature;BME280_humidity;BME280_pressure;Samples;Min_cycle;Max_cycle;Signal;HPM_P1;HPM_P2
2023/01/04 00:01:45;;;;;;;;;;;12.70;99.90;;;;;;5141166;27;20394;-51
2023/01/04 00:04:10;;;;;;;;;;;12.70;99.90;;;;;;5141572;27;19911;-52
2023/01/04 00:06:36;;;;;;;;;;;12.70;99.90;;;;;;5141741;27;19907;-48
2023/01/04 00:09:02;;;;;;;;;;;12.80;99.90;;;;;;5141372;27;20338;-51
2023/01/04 00:11:27;;;;;;;;;;;12.70;99.90;;;;;;5141426;27;19971;-52
2023/01/04 00:13:55;;;;;;;;;;;12.70;99.90;;;;;;5141578;27;19908;-52
2023/01/04 00:16:22;;;;;;;;;;;12.60;99.90;;;;;;5141890;27;19990;-51
2023/01/04 00:18:49;;;;;;;;;;;12.60;99.90;;;;;;5141396;27;19907;-51
2023/01/04 00:21:16;;;;;;;;;;;12.60;99.90;;;;;;5141340;27;19912;-46
2023/01/04 00:23:42;;;;;;;;;;;12.70;99.90;;;;;;5141491;27;19952;-51
2023/01/04 00:26:09;;;;;;;;;;;12.70;99.90;;;;;;5141192;27;19907;-52
2023/01/04 00:28:34;;;;;;;;;;;12.70;99.90;;;;;;5141339;27;19914;-49
2023/01/04 00:31:07;;;;;;;;;;;12.60;99.90;;;;;;5122666;27;19907;-47
2023/01/04 00:33:33;;;;;;;;;;;12.60;99.90;;;;;;5141230;27;19907;-50
2023/01/04 00:36:06;;;;;;;;;;;12.60;99.90;;;;;;5141160;27;20366;-51
2023/01/04 00:38:32;;;;;;;;;;;12.60;99.90;;;;;;5141322;27;19907;-51
2023/01/04 00:40:58;;;;;;;;;;;12.60;99.90;;;;;;5140605;27;19918;-49
2023/01/04 00:43:23;;;;;;;;;;;12.70;99.90;;;;;;5141028;27;19908;-49
2023/01/04 00:45:49;;;;;;;;;;;12.70;99.90;;;;;;5141273;27;20362;-50
2023/01/04 00:48:14;;;;;;;;;;;12.70;99.90;;;;;;5139958;27;19957;-48
2023/01/04 00:50:42;;;;;;;;;;;12.60;99.90;;;;;;5140605;27;19958;-47
2023/01/04 00:53:08;;;;;;;;;;;12.60;99.90;;;;;;5141123;27;19908;-53
2023/01/04 00:55:34;;;;;;;;;;;12.70;99.90;;;;;;5140593;27;19914;-52
2023/01/04 00:57:59;;;;;;;;;;;12.70;99.90;;;;;;5140910;27;19911;-52
2023/01/04 01:00:25;;;;;;;;;;;12.70;99.90;;;;;;5140387;27;19912;-51
2023/01/04 01:02:50;;;;;;;;;;;12.70;99.90;;;;;;5140280;27;19919;-51
2023/01/04 01:05:16;;;;;;;;;;;12.70;99.90;;;;;;5140633;27;19994;-53
2023/01/04 01:07:42;;;;;;;;;;;12.70;99.90;;;;;;5140507;27;19915;-50
2023/01/04 01:10:07;;;;;;;;;;;12.70;99.90;;;;;;5140547;27;19915;-50
2023/01/04 01:12:33;;;;;;;;;;;12.70;99.90;;;;;;5140422;27;19947;-50
2023/01/04 01:14:58;;;;;;;;;;;12.70;99.90;;;;;;5140173;27;19953;-50
2023/01/04 01:17:24;;;;;;;;;;;12.70;99.90;;;;;;5140329;27;19908;-53
2023/01/04 01:19:50;;;;;;;;;;;12.10;99.90;;;;;;5140000;27;20381;-48
2023/01/04 01:22:15;;;;;;;;;;;12.70;99.90;;;;;;5140094;27;19907;-51
2023/01/04 01:24:41;;;;;;;;;;;12.70;99.90;;;;;;5140079;27;19914;-53
2023/01/04 01:27:06;;;;;;;;;;;12.80;99.90;;;;;;5139942;27;19914;-53
2023/01/04 01:29:32;;;;;;;;;;;12.70;99.90;;;;;;5140160;27;19911;-49
2023/01/04 01:31:58;;;;;;;;;;;12.70;99.90;;;;;;5139879;27;19915;-51
2023/01/04 01:34:23;;;;;;;;;;;12.80;99.90;;;;;;5140006;27;19929;-51
2023/01/04 01:36:49;;;;;;;;;;;12.80;99.90;;;;;;5139938;27;19907;-51
2023/01/04 01:39:14;;;;;;;;;;;12.70;99.90;;;;;;5140055;27;19971;-51
2023/01/04 01:41:40;;;;;;;;;;;12.70;99.90;;;;;;5139836;27;19912;-51
2023/01/04 01:44:26;;;;;;;;;;;12.70;99.90;;;;;;5139864;27;19964;-51
2023/01/04 01:46:52;;;;;;;;;;;12.80;99.90;;;;;;5139678;27;19907;-50
2023/01/04 01:49:21;;;;;;;;;;;12.80;99.90;;;;;;5139589;27;20355;-50
2023/01/04 01:51:47;;;;;;;;;;;12.70;99.90;;;;;;5139763;27;19908;-53
2023/01/04 01:54:15;;;;;;;;;;;12.70;99.90;;;;;;5139427;27;19911;-47
2023/01/04 01:56:42;;;;;;;;;;;12.80;99.90;;;;;;5139828;27;19958;-49
2023/01/04 01:59:09;;;;;;;;;;;12.80;99.90;;;;;;5139391;27;20438;-51
2023/01/04 02:01:35;;;;;;;;;;;12.80;99.90;;;;;;5139326;27;19912;-52
2023/01/04 02:04:02;;;;;;;;;;;12.80;99.90;;;;;;5139210;27;19907;-52
2023/01/04 02:06:30;;;;;;;;;;;12.80;99.90;;;;;;5139501;27;19955;-53
2023/01/04 02:08:55;;;;;;;;;;;12.70;99.90;;;;;;5139268;27;19956;-49
2023/01/04 02:11:21;;;;;;;;;;;12.80;99.90;;;;;;5139292;27;19908;-48
2023/01/04 02:16:31;;;;;;;;;;;12.80;99.90;;;;;;5139357;27;19914;-51
2023/01/04 02:19:04;;;;;;;;;;;12.80;99.90;;;;;;5139122;27;20425;-52
2023/01/04 02:21:39;;;;;;;;;;;12.80;99.90;;;;;;5139035;27;19918;-49
2023/01/04 02:24:11;;;;;;;;;;;12.80;99.90;;;;;;5139215;27;19958;-50
2023/01/04 02:26:36;;;;;;;;;;;12.80;99.90;;;;;;5139004;27;19914;-51
2023/01/04 02:29:08;;;;;;;;;;;12.70;99.90;;;;;;5120358;27;19911;-53
2023/01/04 02:31:44;;;;;;;;;;;12.80;99.90;;;;;;5139007;27;20291;-52
2023/01/04 02:34:12;;;;;;;;;;;12.80;99.90;;;;;;5139499;28;19907;-51
2023/01/04 02:36:40;;;;;;;;;;;12.80;99.90;;;;;;5138964;28;19908;-49
2023/01/04 02:39:17;;;;;;;;;;;12.80;99.90;;;;;;5139108;28;20427;-53
2023/01/04 02:41:49;;;;;;;;;;;12.70;99.90;;;;;;5138770;28;19919;-51
2023/01/04 02:47:04;;;;;;;;;;;12.80;99.90;;;;;;5138762;28;19992;-52
2023/01/04 02:52:13;;;;;;;;;;;12.80;99.90;;;;;;5138823;28;20343;-53
2023/01/04 02:54:39;;;;;;;;;;;12.80;99.90;;;;;;5138723;28;20002;-52
2023/01/04 02:57:21;;;;;;;;;;;12.80;99.90;;;;;;5138899;28;19908;-51
2023/01/04 03:00:11;;;;;;;;;;;12.80;99.90;;;;;;5138632;28;19914;-49
2023/01/04 03:06:28;;;;;;;;;;;12.80;99.90;;;;;;5138668;28;19914;-50
2023/01/04 03:08:31;;;;;;;;;;;12.70;99.90;;;;;;5120578;28;19912;-51
2023/01/04 03:11:03;;;;;;;;;;;12.80;99.90;;;;;;5139318;27;19908;-52
2023/01/04 03:13:35;;;;;;;;;;;12.80;99.90;;;;;;5142817;27;19914;-51
2023/01/04 03:16:05;;;;;;;;;;;12.80;99.90;;;;;;5143133;27;19915;-53
2023/01/04 03:18:36;;;;;;;;;;;12.80;99.90;;;;;;5142946;27;19908;-51
2023/01/04 03:21:03;;;;;;;;;;;12.90;99.90;;;;;;5142837;27;19917;-48
2023/01/04 03:35:26;;;;;;;;;;;12.80;99.90;;;;;;5142707;27;19914;-49
2023/01/04 03:49:23;;;;;;;;;;;12.80;99.90;;;;;;5141957;27;19914;-49
2023/01/04 03:51:50;;;;;;;;;;;12.80;99.90;;;;;;5142267;27;19983;-51
2023/01/04 03:54:19;;;;;;;;;;;12.80;99.90;;;;;;5142009;27;19908;-49
2023/01/04 03:56:46;;;;;;;;;;;12.80;99.90;;;;;;5142184;27;19975;-48
2023/01/04 03:59:12;;;;;;;;;;;12.80;99.90;;;;;;5141880;27;19912;-51
2023/01/04 04:01:38;;;;;;;;;;;12.80;99.90;;;;;;5141412;27;19912;-53
2023/01/04 04:09:32;;;;;;;;;;;12.90;99.90;;;;;;5141646;27;20076;-51
2023/01/04 04:11:58;;;;;;;;;;;12.80;99.90;;;;;;5141910;27;19908;-49
2023/01/04 04:14:23;;;;;;;;;;;12.90;99.90;;;;;;5141759;27;19915;-53
2023/01/04 04:16:49;;;;;;;;;;;12.80;99.90;;;;;;5141730;27;19907;-49
2023/01/04 04:19:15;;;;;;;;;;;12.90;99.90;;;;;;5141492;27;19913;-53
2023/01/04 04:21:41;;;;;;;;;;;12.90;99.90;;;;;;5141315;27;20332;-50
2023/01/04 04:24:06;;;;;;;;;;;12.80;99.90;;;;;;5121793;27;19907;-50
2023/01/04 04:26:32;;;;;;;;;;;12.70;99.90;;;;;;5141379;27;20495;-49
2023/01/04 04:28:58;;;;;;;;;;;12.90;99.90;;;;;;5141479;27;19907;-51
2023/01/04 04:31:23;;;;;;;;;;;12.80;99.90;;;;;;5141159;27;20393;-51
2023/01/04 04:33:49;;;;;;;;;;;12.80;99.90;;;;;;5141560;27;19907;-51
2023/01/04 04:36:14;;;;;;;;;;;12.80;99.90;;;;;;5141051;27;20354;-53
2023/01/04 04:38:40;;;;;;;;;;;12.80;99.90;;;;;;5140960;27;19971;-51
2023/01/04 04:43:54;;;;;;;;;;;12.80;99.90;;;;;;5141259;27;20273;-48
2023/01/04 04:46:20;;;;;;;;;;;;;;;;;;5140828;27;19943;-48
2023/01/04 04:48:46;;;;;;;;;;;;;;;;;;5141017;27;19908;-51
2023/01/04 04:51:12;;;;;;;;;;;;;;;;;;5140720;27;19908;-48
2023/01/04 04:53:38;;;;;;;;;;;;;;;;;;5140779;27;19978;-51
2023/01/04 04:56:04;;;;;;;;;;;;;;;;;;5140793;27;20434;-51
2023/01/04 04:58:30;;;;;;;;;;;;;;;;;;5141043;27;19908;-52
2023/01/04 05:00:56;;;;;;;;;;;;;;;;;;5140580;27;19933;-53
2023/01/04 05:03:22;;;;;;;;;;;;;;;;;;5140395;27;19920;-53
2023/01/04 05:05:48;;;;;;;;;;;;;;;;;;5140597;27;19907;-49
2023/01/04 05:08:13;;;;;;;;;;;;;;;;;;5140802;27;19914;-50
2023/01/04 05:10:39;;;;;;;;;;;;;;;;;;5140315;27;19933;-49
2023/01/04 05:13:09;;;;;;;;;;;;;;;;;;5140326;27;19947;-51
2023/01/04 05:15:35;;;;;;;;;;;;;;;;;;5140679;27;19999;-50
2023/01/04 05:18:01;;;;;;;;;;;;;;;;;;5140249;27;19949;-51
2023/01/04 05:20:27;;;;;;;;;;;;;;;;;;5140200;27;19963;-51
2023/01/04 05:22:53;;;;;;;;;;;;;;;;;;5140549;27;19918;-51
2023/01/04 05:25:19;;;;;;;;;;;;;;;;;;5121556;27;19994;-50
2023/01/04 05:27:45;;;;;;;;;;;;;;;;;;5140443;27;19907;-49
2023/01/04 05:32:55;;;;;;;;;;;;;;;;;;5139806;27;20389;-53
2023/01/04 05:35:21;;;;;;;;;;;;;;;;;;5139744;27;19904;-53
2023/01/04 05:37:47;;;;;;;;;;;;;;;;;;5140224;27;19915;-51
2023/01/04 05:40:13;;;;;;;;;;;;;;;;;;5139641;27;19916;-54
2023/01/04 05:42:39;;;;;;;;;;;;;;;;;;5140030;27;19957;-49
2023/01/04 05:45:05;;;;;;;;;;;;;;;;;;5139648;27;19911;-51
2023/01/04 05:47:31;;;;;;;;;;;;;;;;;;5139860;27;20353;-51
2023/01/04 05:49:57;;;;;;;;;;;;;;;;;;5139749;27;19910;-53
2023/01/04 05:52:23;;;;;;;;;;;;;;;;;;5140014;27;19918;-49
2023/01/04 05:54:49;;;;;;;;;;;;;;;;;;5139477;27;19903;-52
2023/01/04 05:57:15;;;;;;;;;;;12.70;99.90;;;;;;5139688;27;19907;-54
2023/01/04 05:59:40;;;;;;;;;;;12.80;99.90;;;;;;5139404;27;19980;-52
2023/01/04 06:02:07;;;;;;;;;;;12.80;99.90;;;;;;5120575;27;19919;-52
2023/01/04 06:04:32;;;;;;;;;;;12.80;99.90;;;;;;5139367;27;19914;-52
2023/01/04 06:06:58;;;;;;;;;;;12.70;99.90;;;;;;5139517;27;19909;-51
2023/01/04 06:09:25;;;;;;;;;;;12.70;99.90;;;;;;5121457;27;19994;-50
2023/01/04 06:11:51;;;;;;;;;;;12.70;99.90;;;;;;5139147;27;19914;-49
2023/01/04 06:14:16;;;;;;;;;;;12.70;99.90;;;;;;5139132;27;19908;-50
2023/01/04 06:16:42;;;;;;;;;;;12.70;99.90;;;;;;5139410;27;19915;-53
2023/01/04 06:19:07;;;;;;;;;;;12.70;99.90;;;;;;5139369;27;20347;-53
2023/01/04 06:21:33;;;;;;;;;;;12.70;99.90;;;;;;5139472;27;19958;-53
2023/01/04 06:23:59;;;;;;;;;;;12.70;99.90;;;;;;5139060;27;19907;-52
2023/01/04 06:26:24;;;;;;;;;;;12.70;99.90;;;;;;5139233;27;19908;-50
2023/01/04 06:28:50;;;;;;;;;;;12.70;99.90;;;;;;5139196;27;20342;-52
2023/01/04 06:31:16;;;;;;;;;;;12.70;99.90;;;;;;5139039;27;19908;-51
2023/01/04 06:33:41;;;;;;;;;;;12.70;99.90;;;;;;5138973;27;20368;-51
2023/01/04 06:36:07;;;;;;;;;;;12.70;99.90;;;;;;5139000;28;19907;-50
2023/01/04 06:38:32;;;;;;;;;;;12.70;99.90;;;;;;5139012;28;19908;-50
2023/01/04 06:40:58;;;;;;;;;;;12.70;99.90;;;;;;5138565;28;20647;-51
2023/01/04 06:43:24;;;;;;;;;;;12.70;99.90;;;;;;5120304;28;19995;-51
2023/01/04 06:45:49;;;;;;;;;;;12.70;99.90;;;;;;5139390;27;19999;-53
2023/01/04 06:48:15;;;;;;;;;;;12.70;99.90;;;;;;5143328;27;19999;-51
2023/01/04 06:50:41;;;;;;;;;;;12.70;99.90;;;;;;5143331;27;19914;-50
2023/01/04 06:53:07;;;;;;;;;;;12.70;99.90;;;;;;5143168;27;19907;-49
2023/01/04 06:55:32;;;;;;;;;;;12.80;99.90;;;;;;5143246;27;19919;-53
2023/01/04 06:57:58;;;;;;;;;;;12.70;99.90;;;;;;5142928;27;19965;-49
2023/01/04 07:00:24;;;;;;;;;;;12.70;99.90;;;;;;5142847;27;20290;-50
2023/01/04 07:02:49;;;;;;;;;;;12.80;99.90;;;;;;5142681;27;19926;-49
2023/01/04 07:05:15;;;;;;;;;;;12.70;99.90;;;;;;5142719;27;20335;-52
2023/01/04 07:07:41;;;;;;;;;;;12.70;99.90;;;;;;5143238;27;19907;-52
2023/01/04 07:10:06;;;;;;;;;;;12.70;99.90;;;;;;5142680;27;19907;-53
2023/01/04 07:12:32;;;;;;;;;;;12.70;99.90;;;;;;5142483;27;19911;-48
2023/01/04 07:14:58;;;;;;;;;;;12.70;99.90;;;;;;5142832;27;19956;-50
2023/01/04 07:17:24;;;;;;;;;;;12.70;99.90;;;;;;5142684;27;19907;-49
2023/01/04 07:19:50;;;;;;;;;;;12.70;99.90;;;;;;5142497;27;20377;-48
2023/01/04 07:22:16;;;;;;;;;;;12.70;99.90;;;;;;5142725;27;20274;-53
2023/01/04 07:24:42;;;;;;;;;;;12.70;99.90;;;;;;5141704;27;19907;-51
2023/01/04 07:27:08;;;;;;;;;;;12.70;99.90;;;;;;5142020;27;19911;-53
2023/01/04 07:29:34;;;;;;;;;;;12.70;99.90;;;;;;5142270;27;20018;-47
2023/01/04 07:31:59;;;;;;;;;;;12.70;99.90;;;;;;5142411;27;19958;-47
2023/01/04 07:34:25;;;;;;;;;;;12.80;99.90;;;;;;5142179;27;20302;-53
2023/01/04 07:36:51;;;;;;;;;;;12.70;99.90;;;;;;5142475;27;19911;-49
2023/01/04 07:39:17;;;;;;;;;;;12.70;99.90;;;;;;5142077;27;20331;-50
2023/01/04 07:41:43;;;;;;;;;;;12.70;99.90;;;;;;5142126;27;20048;-49
2023/01/04 07:44:09;;;;;;;;;;;12.70;99.90;;;;;;5142310;27;19915;-52
2023/01/04 07:46:35;;;;;;;;;;;12.70;99.90;;;;;;5141978;27;19907;-50
2023/01/04 07:49:01;;;;;;;;;;;12.70;99.90;;;;;;5123089;27;19915;-52
2023/01/04 07:51:26;;;;;;;;;;;12.80;99.90;;;;;;5141949;27;19907;-50
2023/01/04 07:53:52;;;;;;;;;;;12.70;99.90;;;;;;5141774;27;19997;-52
2023/01/04 07:56:18;;;;;;;;;;;12.90;99.90;;;;;;5141845;27;19907;-51
2023/01/04 07:58:43;;;;;;;;;;;12.70;99.90;;;;;;5141610;27;19911;-50
2023/01/04 08:01:13;;;;;;;;;;;12.70;99.90;;;;;;5141931;27;20396;-51
2023/01/04 08:03:39;;;;;;;;;;;12.70;99.90;;;;;;5141166;27;19920;-50
2023/01/04 08:06:05;;;;;;;;;;;12.70;99.90;;;;;;5141944;27;19908;-51
2023/01/04 08:08:31;;;;;;;;;;;12.70;99.90;;;;;;5141667;27;19908;-48
2023/01/04 08:11:00;;;;;;;;;;;12.70;99.90;;;;;;5141166;27;20351;-51
2023/01/04 08:13:26;;;;;;;;;;;12.70;99.90;;;;;;5141384;27;19907;-49
2023/01/04 08:15:52;;;;;;;;;;;12.70;99.90;;;;;;5123069;27;19912;-50
2023/01/04 08:18:17;;;;;;;;;;;12.70;99.90;;;;;;5141539;27;20430;-50
2023/01/04 08:20:43;;;;;;;;;;;12.60;99.90;;;;;;5122664;27;20495;-49
2023/01/04 08:23:09;;;;;;;;;;;12.70;99.90;;;;;;5141468;27;19914;-51
2023/01/04 08:25:34;;;;;;;;;;;12.70;99.90;;;;;;5140988;27;19908;-51
2023/01/04 08:28:00;;;;;;;;;;;12.70;99.90;;;;;;5141236;27;19915;-47
2023/01/04 08:30:25;;;;;;;;;;;12.70;99.90;;;;;;5141416;27;19992;-52
2023/01/04 08:32:52;;;;;;;;;;;12.70;99.90;;;;;;5141078;27;19908;-52
2023/01/04 08:35:18;;;;;;;;;;;12.80;99.90;;;;;;5141132;27;19953;-53
2023/01/04 08:37:44;;;;;;;;;;;12.70;99.90;;;;;;5140643;27;20384;-51
2023/01/04 08:40:10;;;;;;;;;;;13.00;99.90;;;;;;5140875;27;20005;-50
2023/01/04 08:42:36;;;;;;;;;;;12.70;99.90;;;;;;5141216;27;20430;-52
2023/01/04 08:45:01;;;;;;;;;;;12.80;99.90;;;;;;5140860;27;19928;-52
2023/01/04 08:47:28;;;;;;;;;;;12.80;99.90;;;;;;5140963;27;19907;-54
2023/01/04 08:49:54;;;;;;;;;;;12.70;99.90;;;;;;5140755;27;19915;-51
2023/01/04 08:52:20;;;;;;;;;;;12.70;99.90;;;;;;5140843;27;19908;-52
2023/01/04 08:54:46;;;;;;;;;;;12.80;99.90;;;;;;5140431;27;20344;-51
2023/01/04 08:57:12;;;;;;;;;;;12.80;99.90;;;;;;5140484;27;19946;-53
2023/01/04 08:59:37;;;;;;;;;;;12.70;99.90;;;;;;5140599;27;20457;-54
2023/01/04 09:02:03;;;;;;;;;;;12.70;99.90;;;;;;5140435;27;20338;-49
2023/01/04 09:04:28;;;;;;;;;;;12.80;99.90;;;;;;5140338;27;19991;-52
2023/01/04 09:06:54;;;;;;;;;;;12.80;99.90;;;;;;5140810;27;19914;-51
2023/01/04 09:09:20;;;;;;;;;;;12.90;99.90;;;;;;5139582;27;20320;-49
2023/01/04 09:11:45;;;;;;;;;;;12.80;99.90;;;;;;5140216;27;19908;-51
2023/01/04 09:14:12;;;;;;;;;;;12.80;99.90;;;;;;5140066;27;19912;-54
2023/01/04 09:16:38;;;;;;;;;;;12.80;99.90;;;;;;5140131;27;19915;-52
2023/01/04 09:19:04;;;;;;;;;;;12.80;99.90;;;;;;5140038;27;19908;-51
2023/01/04 09:21:30;;;;;;;;;;;12.80;99.90;;;;;;5140237;27;20259;-51
2023/01/04 09:23:57;;;;;;;;;;;12.80;99.90;;;;;;5139964;27;19914;-54
2023/01/04 09:26:23;;;;;;;;;;;12.80;99.90;;;;;;5140038;27;19918;-54
2023/01/04 09:28:50;;;;;;;;;;;12.80;99.90;;;;;;5140297;27;19908;-51
2023/01/04 09:31:17;;;;;;;;;;;12.90;99.90;;;;;;5140079;27;19913;-52
2023/01/04 09:33:43;;;;;;;;;;;12.80;99.90;;;;;;5140181;27;19949;-51
2023/01/04 09:36:10;;;;;;;;;;;12.90;99.90;;;;;;5140078;27;19957;-50
2023/01/04 09:38:35;;;;;;;;;;;12.80;99.90;;;;;;5139559;27;20449;-51
2023/01/04 09:41:17;;;;;;;;;;;12.80;99.90;;;;;;5139256;27;19959;-52
2023/01/04 09:43:43;;;;;;;;;;;12.70;99.90;;;;;;5139321;27;19911;-52
2023/01/04 09:46:09;;;;;;;;;;;12.90;99.90;;;;;;5139630;27;20033;-52
2023/01/04 09:48:35;;;;;;;;;;;12.80;99.90;;;;;;5139366;27;19907;-51
2023/01/04 09:51:03;;;;;;;;;;;13.00;99.90;;;;;;5139604;27;19950;-51
2023/01/04 09:53:44;;;;;;;;;;;12.90;99.90;;;;;;5139398;27;19908;-53
2023/01/04 09:56:30;;;;;;;;;;;12.90;99.90;;;;;;5139658;27;20244;-53
2023/01/04 09:58:56;;;;;;;;;;;12.90;99.90;;;;;;5139217;27;19917;-52
2023/01/04 10:01:35;;;;;;;;;;;12.90;99.90;;;;;;5139351;27;20374;-52
2023/01/04 10:04:06;;;;;;;;;;;12.90;99.90;;;;;;5139367;27;20346;-50
2023/01/04 10:06:33;;;;;;;;;;;12.90;99.90;;;;;;5139290;27;20381;-57
2023/01/04 10:09:01;;;;;;;;;;;13.00;99.90;;;;;;5139060;27;20332;-58
2023/01/04 10:11:35;;;;;;;;;;;12.90;99.90;;;;;;5139162;27;19907;-57
2023/01/04 10:14:26;;;;;;;;;;;12.90;99.90;;;;;;5120465;27;19914;-58
2023/01/04 10:16:55;;;;;;;;;;;13.00;99.90;;;;;;5139454;27;19908;-58
2023/01/04 10:19:23;;;;;;;;;;;12.90;99.90;;;;;;5138976;27;19915;-58
2023/01/04 10:21:58;;;;;;;;;;;12.90;99.90;;;;;;5138023;27;19912;-58
2023/01/04 10:24:24;;;;;;;;;;;12.90;99.90;;;;;;5138834;27;19907;-58
2023/01/04 10:26:53;;;;;;;;;;;12.90;99.90;;;;;;5138881;27;19915;-58
2023/01/04 10:29:23;;;;;;;;;;;12.90;99.90;;;;;;5138865;27;19933;-58
2023/01/04 10:31:57;;;;;;;;;;;12.90;99.90;;;;;;5138862;27;20007;-58
2023/01/04 10:34:30;;;;;;;;;;;12.90;99.90;;;;;;5139084;27;19908;-58
2023/01/04 10:37:03;;;;;;;;;;;12.80;99.90;;;;;;5138680;28;19907;-57
2023/01/04 10:39:30;;;;;;;;;;;12.90;99.90;;;;;;5138963;28;19995;-56
2023/01/04 10:41:58;;;;;;;;;;;12.90;99.90;;;;;;5138935;28;19958;-57
2023/01/04 10:44:27;;;;;;;;;;;12.90;99.90;;;;;;5138915;28;19908;-57
2023/01/04 10:46:59;;;;;;;;;;;13.00;99.90;;;;;;5138813;28;19911;-57
2023/01/04 10:49:25;;;;;;;;;;;13.00;99.90;;;;;;5138657;28;19908;-58
2023/01/04 10:52:20;;;;;;;;;;;12.90;99.90;;;;;;5138804;28;19956;-58
2023/01/04 10:55:10;;;;;;;;;;;13.00;99.90;;;;;;5116418;28;19964;-58
2023/01/04 10:57:42;;;;;;;;;;;13.00;99.90;;;;;;5138908;28;20315;-57
2023/01/04 11:00:12;;;;;;;;;;;13.00;99.90;;;;;;5138818;28;19907;-58
2023/01/04 11:02:47;;;;;;;;;;;12.90;99.90;;;;;;5138507;28;19919;-57
2023/01/04 11:05:29;;;;;;;;;;;13.00;99.90;;;;;;5138642;28;19930;-57
2023/01/04 11:07:55;;;;;;;;;;;;;;;;;;5138894;28;19915;-57
2023/01/04 11:10:24;;;;;;;;;;;15.30;99.90;;;;;;5138702;28;19908;-57
2023/01/04 11:12:51;;;;;;;;;;;13.10;99.90;;;;;;5138905;28;21091;-57
2023/01/04 11:15:16;;;;;;;;;;;13.20;99.90;;;;;;5138702;28;19908;-58
2023/01/04 11:17:42;;;;;;;;;;;13.10;99.90;;;;;;5138087;28;19915;-58
2023/01/04 11:20:08;;;;;;;;;;;13.10;99.90;;;;;;5138512;28;19970;-57
2023/01/04 11:22:39;;;;;;;;;;;13.00;99.90;;;;;;5138490;28;20278;-58
2023/01/04 11:25:09;;;;;;;;;;;13.00;99.90;;;;;;5138231;28;19908;-57
2023/01/04 11:27:39;;;;;;;;;;;13.00;99.90;;;;;;5138381;28;19908;-58
2023/01/04 11:30:10;;;;;;;;;;;13.00;99.90;;;;;;5138318;28;20331;-57
2023/01/04 11:32:36;;;;;;;;;;;13.00;99.90;;;;;;5139839;27;20410;-57
2023/01/04 11:35:02;;;;;;;;;;;13.00;99.90;;;;;;5142140;27;19986;-58
2023/01/04 11:37:32;;;;;;;;;;;13.00;99.90;;;;;;5142145;27;20006;-57
2023/01/04 11:40:10;;;;;;;;;;;13.00;99.90;;;;;;5141715;27;19914;-57
2023/01/04 11:42:35;;;;;;;;;;;13.00;99.90;;;;;;5142016;27;20282;-57
2023/01/04 11:45:01;;;;;;;;;;;13.00;99.90;;;;;;5142137;27;19907;-58
2023/01/04 11:47:27;;;;;;;;;;;13.00;99.90;;;;;;5141881;27;20351;-58
2023/01/04 11:49:53;;;;;;;;;;;13.00;99.90;;;;;;5141670;27;19946;-58
2023/01/04 11:52:30;;;;;;;;;;;12.90;99.90;;;;;;5141818;27;19931;-58
2023/01/04 11:55:14;;;;;;;;;;;13.00;99.90;;;;;;5141625;27;19907;-58
2023/01/04 11:57:39;;;;;;;;;;;12.90;99.90;;;;;;5141387;27;19908;-58
2023/01/04 12:00:07;;;;;;;;;;;13.00;99.90;;;;;;5141535;27;19915;-58
2023/01/04 12:02:33;;;;;;;;;;;12.90;99.90;;;;;;5141370;27;19923;-58
2023/01/04 12:04:59;;;;;;;;;;;13.00;99.90;;;;;;5141181;27;19908;-58
2023/01/04 12:07:27;;;;;;;;;;;13.00;99.90;;;;;;5141690;27;19908;-57
2023/01/04 12:09:53;;;;;;;;;;;13.00;99.90;;;;;;5141364;27;19915;-58
2023/01/04 12:12:19;;;;;;;;;;;13.00;99.90;;;;;;5141429;27;19908;-58
2023/01/04 12:14:47;;;;;;;;;;;13.00;99.90;;;;;;5141489;27;19908;-58
2023/01/04 12:17:17;;;;;;;;;;;12.90;99.90;;;;;;5141544;27;20007;-58
2023/01/04 12:19:44;;;;;;;;;;;12.90;99.90;;;;;;5141244;27;19908;-58
2023/01/04 12:22:32;;;;;;;;;;;12.90;99.90;;;;;;5141251;27;19961;-58
2023/01/04 12:24:58;;;;;;;;;;;12.90;99.90;;;;;;5140906;27;20382;-58
2023/01/04 12:27:24;;;;;;;;;;;12.90;99.90;;;;;;5122652;27;20313;-57
2023/01/04 12:29:54;;;;;;;;;;;12.90;99.90;;;;;;5141078;27;19907;-57
2023/01/04 12:32:26;;;;;;;;;;;13.00;99.90;;;;;;5141073;27;19994;-58
2023/01/04 12:34:52;;;;;;;;;;;13.00;99.90;;;;;;5141135;27;19973;-58
2023/01/04 12:37:36;;;;;;;;;;;13.00;99.90;;;;;;5141085;27;19908;-58
2023/01/04 12:40:22;;;;;;;;;;;12.90;99.90;;;;;;5140807;27;19915;-58
2023/01/04 12:43:06;;;;;;;;;;;12.90;99.90;;;;;;5088727;27;19911;-58
2023/01/04 12:45:32;;;;;;;;;;;12.90;99.90;;;;;;5140357;27;19950;-58
2023/01/04 12:51:20;;;;;;;;;;;13.00;99.90;;;;;;5140863;27;19959;-58
2023/01/04 12:53:50;;;;;;;;;;;12.90;99.90;;;;;;5140741;27;19998;-57
2023/01/04 12:56:16;;;;;;;;;;;13.00;99.90;;;;;;5140961;27;19914;-58
2023/01/04 12:58:41;;;;;;;;;;;12.90;99.90;;;;;;5140627;27;19907;-58
2023/01/04 13:01:08;;;;;;;;;;;12.80;99.90;;;;;;5140813;27;19911;-57
2023/01/04 13:03:34;;;;;;;;;;;13.00;99.90;;;;;;5139989;27;19923;-58
2023/01/04 13:06:03;;;;;;;;;;;12.90;99.90;;;;;;5140536;27;19911;-58
2023/01/04 13:08:34;;;;;;;;;;;12.90;99.90;;;;;;5140177;27;19927;-56
2023/01/04 13:11:00;;;;;;;;;;;12.90;99.90;;;;;;5140382;27;19907;-58
2023/01/04 13:13:26;;;;;;;;;;;12.90;99.90;;;;;;5140072;27;19930;-58
2023/01/04 13:16:03;;;;;;;;;;;12.90;99.90;;;;;;5140364;27;19908;-58
2023/01/04 13:18:44;;;;;;;;;;;13.00;99.90;;;;;;5140008;27;19913;-58
2023/01/04 13:21:14;;;;;;;;;;;13.00;99.90;;;;;;5139880;27;19911;-58
2023/01/04 13:23:45;;;;;;;;;;;13.00;99.90;;;;;;5139848;27;19907;-58
2023/01/04 13:26:27;;;;;;;;;;;13.00;99.90;;;;;;5140055;27;20363;-58
2023/01/04 13:28:53;;;;;;;;;;;;;;;;;;5139967;27;19915;-58
2023/01/04 13:31:19;;;;;;;;;;;13.10;99.90;;;;;;5139693;27;19909;-58
2023/01/04 13:33:45;;;;;;;;;;;13.00;99.90;;;;;;5139640;27;19907;-58
2023/01/04 13:36:11;;;;;;;;;;;13.00;99.90;;;;;;5139732;27;19912;-58
2023/01/04 13:38:38;;;;;;;;;;;13.10;99.90;;;;;;5139891;27;19953;-58
2023/01/04 13:41:17;;;;;;;;;;;13.00;99.90;;;;;;5139465;27;20258;-58
2023/01/04 13:44:03;;;;;;;;;;;13.00;99.90;;;;;;5139982;27;19908;-58
2023/01/04 13:46:28;;;;;;;;;;;13.00;99.90;;;;;;5139773;27;19908;-57
2023/01/04 13:49:01;;;;;;;;;;;12.90;99.90;;;;;;5139240;27;19908;-57
2023/01/04 13:51:30;;;;;;;;;;;12.90;99.90;;;;;;5139892;27;19908;-58
2023/01/04 13:53:57;;;;;;;;;;;12.90;99.90;;;;;;5139334;27;19994;-58
2023/01/04 13:56:27;;;;;;;;;;;12.90;99.90;;;;;;5120729;27;19907;-56
2023/01/04 13:58:53;;;;;;;;;;;12.90;99.90;;;;;;5139427;27;19920;-58
2023/01/04 14:01:25;;;;;;;;;;;12.90;99.90;;;;;;5139500;27;19924;-58
2023/01/04 14:03:55;;;;;;;;;;;12.90;99.90;;;;;;5139483;27;19958;-58
2023/01/04 14:06:24;;;;;;;;;;;12.90;99.90;;;;;;5139425;27;20000;-58
2023/01/04 14:08:52;;;;;;;;;;;12.80;99.90;;;;;;5139193;27;19907;-58
2023/01/04 14:14:18;;;;;;;;;;;12.80;99.90;;;;;;5139341;27;19913;-58
2023/01/04 14:16:44;;;;;;;;;;;12.80;99.90;;;;;;5138981;27;20347;-58
2023/01/04 14:19:26;;;;;;;;;;;13.00;99.90;;;;;;5139497;27;19930;-58
2023/01/04 14:21:51;;;;;;;;;;;12.80;99.90;;;;;;5138597;27;20382;-58
2023/01/04 14:24:33;;;;;;;;;;;12.80;99.90;;;;;;5139064;27;20028;-58
2023/01/04 14:26:59;;;;;;;;;;;12.80;99.90;;;;;;5138784;27;20521;-58
2023/01/04 14:29:31;;;;;;;;;;;12.80;99.90;;;;;;5138821;27;20002;-58
2023/01/04 14:31:56;;;;;;;;;;;12.80;99.90;;;;;;5138839;27;19907;-58
2023/01/04 14:34:22;;;;;;;;;;;12.80;99.90;;;;;;5120389;28;19941;-60
2023/01/04 14:36:48;;;;;;;;;;;12.80;99.90;;;;;;5138963;27;19908;-58
2023/01/04 14:39:18;;;;;;;;;;;12.80;99.90;;;;;;5138552;28;19914;-58
2023/01/04 14:41:53;;;;;;;;;;;12.90;99.90;;;;;;5139032;28;20447;-58
2023/01/04 14:44:20;;;;;;;;;;;12.90;99.90;;;;;;5138575;28;19914;-58
2023/01/04 14:46:50;;;;;;;;;;;12.80;99.90;;;;;;5120095;28;19907;-58
2023/01/04 14:49:18;;;;;;;;;;;12.80;99.90;;;;;;5138926;28;20366;-58
2023/01/04 14:51:44;;;;;;;;;;;12.90;99.90;;;;;;5138517;28;19939;-58
2023/01/04 14:54:10;;;;;;;;;;;12.80;99.90;;;;;;5138574;28;20286;-58
2023/01/04 14:56:36;;;;;;;;;;;12.80;99.90;;;;;;5138356;28;19907;-58
2023/01/04 14:59:02;;;;;;;;;;;12.80;99.90;;;;;;5120109;28;19907;-58
2023/01/04 15:01:28;;;;;;;;;;;12.80;99.90;;;;;;5138444;28;19912;-58
2023/01/04 15:03:53;;;;;;;;;;;12.70;99.90;;;;;;5138925;28;20427;-58
2023/01/04 15:06:19;;;;;;;;;;;12.80;99.90;;;;;;5138729;27;19907;-58
2023/01/04 15:08:45;;;;;;;;;;;12.80;99.90;;;;;;5142381;27;19991;-59
2023/01/04 15:11:12;;;;;;;;;;;12.70;99.90;;;;;;5142317;27;19907;-58
2023/01/04 15:13:37;;;;;;;;;;;12.70;99.90;;;;;;5142692;27;19908;-58
2023/01/04 15:16:03;;;;;;;;;;;12.70;99.90;;;;;;5142654;27;20010;-58
2023/01/04 15:18:29;;;;;;;;;;;12.70;99.90;;;;;;5142445;27;20386;-58
2023/01/04 15:20:55;;;;;;;;;;;12.70;99.90;;;;;;5142539;27;20026;-58
2023/01/04 15:23:20;;;;;;;;;;;12.60;99.90;;;;;;5142466;27;20451;-58
2023/01/04 15:25:46;;;;;;;;;;;12.70;99.90;;;;;;5142169;27;19953;-58